createdAt,value
2017-10-05T00:13:51.000Z,12
2017-10-05T00:30:32.000Z,11.7
2017-10-05T00:47:12.000Z,11.7
2017-10-05T01:03:51.000Z,11.4
2017-10-05T01:20:31.000Z,11.4
2017-10-05T01:37:11.000Z,11.4
2017-10-05T01:53:51.000Z,11.4
2017-10-05T02:10:31.000Z,11
2017-10-05T02:27:10.000Z,11
2017-10-05T02:43:50.000Z,11
2017-10-05T03:00:29.000Z,11
2017-10-05T03:17:10.000Z,11
2017-10-05T03:33:49.000Z,11
2017-10-05T03:50:29.000Z,11
2017-10-05T04:07:08.000Z,11
2017-10-05T04:23:48.000Z,11
2017-10-05T04:40:28.000Z,11
2017-10-05T04:57:08.000Z,11.4
2017-10-05T05:13:47.000Z,11.4
2017-10-05T05:30:28.000Z,11.4
2017-10-05T05:47:07.000Z,11.4
2017-10-05T06:03:47.000Z,11.7
2017-10-05T06:20:27.000Z,11.7
2017-10-05T06:37:08.000Z,11.7
2017-10-05T06:53:48.000Z,11.7
2017-10-05T07:10:28.000Z,12
2017-10-05T07:27:09.000Z,12
2017-10-05T07:43:49.000Z,12
2017-10-05T08:00:30.000Z,12.3
2017-10-05T08:17:10.000Z,12.6
2017-10-05T08:33:51.000Z,12.6
2017-10-05T08:50:33.000Z,13.3
2017-10-05T09:07:15.000Z,13.6
2017-10-05T09:23:57.000Z,13.9
2017-10-05T09:40:40.000Z,13.9
2017-10-05T09:57:22.000Z,14.6
2017-10-05T10:07:24.000Z,15.2
2017-10-05T10:24:07.000Z,14.2
2017-10-05T10:40:50.000Z,14.6
2017-10-05T10:47:31.000Z,13.9
2017-10-05T11:00:52.000Z,14.6
2017-10-05T11:14:16.000Z,14.9
2017-10-05T11:27:38.000Z,14.2
2017-10-05T11:34:19.000Z,13.6
2017-10-05T11:40:59.000Z,14.2
2017-10-05T11:57:42.000Z,13.6
2017-10-05T12:01:02.000Z,13
2017-10-05T12:17:43.000Z,13
2017-10-05T12:27:45.000Z,13.6
2017-10-05T12:37:46.000Z,13.6
2017-10-05T12:54:28.000Z,14.2
2017-10-05T13:04:30.000Z,14.6
2017-10-05T13:11:10.000Z,13.9
2017-10-05T13:27:52.000Z,14.2
2017-10-05T13:44:34.000Z,14.2
2017-10-05T14:01:17.000Z,14.2
2017-10-05T14:18:00.000Z,14.6
2017-10-05T14:34:42.000Z,15.2
2017-10-05T14:48:05.000Z,14.6
2017-10-05T15:04:47.000Z,14.2
2017-10-05T15:21:29.000Z,14.6
2017-10-05T15:38:13.000Z,14.6
2017-10-05T15:48:14.000Z,13.9
2017-10-05T16:04:56.000Z,13.9
2017-10-05T16:21:38.000Z,13.6
2017-10-05T16:35:00.000Z,13
2017-10-05T16:48:21.000Z,12.3
2017-10-05T17:05:01.000Z,12.3
2017-10-05T17:21:42.000Z,12.3
2017-10-05T17:38:22.000Z,12.3
2017-10-05T17:51:44.000Z,11.7
2017-10-05T18:08:24.000Z,11
2017-10-05T18:25:03.000Z,11
2017-10-05T18:41:44.000Z,10.7
2017-10-05T18:58:23.000Z,10.7
2017-10-05T19:15:02.000Z,10.7
2017-10-05T19:31:42.000Z,10.7
2017-10-05T19:48:22.000Z,10.7
2017-10-05T20:05:02.000Z,10.7
2017-10-05T20:21:42.000Z,10.7
2017-10-05T20:38:21.000Z,10.7
2017-10-05T20:55:02.000Z,11
2017-10-05T21:11:41.000Z,10.7
2017-10-05T21:28:21.000Z,10.7
2017-10-05T21:45:00.000Z,10.4
2017-10-05T22:01:40.000Z,10.1
2017-10-05T22:18:19.000Z,10.1
2017-10-05T22:34:58.000Z,10.1
2017-10-05T22:51:37.000Z,10.1
2017-10-05T23:08:17.000Z,10.1
2017-10-05T23:24:55.000Z,9.8
2017-10-05T23:41:33.000Z,9.4
